createdAt,value
2019-04-23T00:01:29.922Z,18.12
2019-04-23T00:03:51.998Z,14.75
2019-04-23T00:06:24.850Z,27.93
2019-04-23T00:13:59.508Z,26.37
2019-04-23T00:16:30.185Z,20.15
2019-04-23T00:18:56.326Z,32.40
2019-04-23T00:24:17.472Z,27.20
2019-04-23T00:26:36.652Z,28.80
2019-04-23T00:29:16.096Z,30.50
2019-04-23T00:31:36.179Z,27.48
2019-04-23T00:37:06.480Z,37.28
2019-04-23T00:39:35.837Z,30.65
2019-04-23T00:41:57.333Z,35.25
2019-04-23T00:44:34.962Z,23.98
2019-04-23T00:47:02.605Z,35.25
2019-04-23T00:49:32.532Z,29.95
2019-04-23T00:52:09.553Z,28.38
2019-04-23T00:54:34.458Z,34.35
2019-04-23T00:57:08.975Z,31.95
2019-04-23T00:59:39.477Z,41.33
2019-04-23T01:02:00.917Z,38.78
2019-04-23T01:04:32.794Z,37.05
2019-04-23T01:07:09.542Z,29.48
2019-04-23T01:09:40.550Z,41.98
2019-04-23T01:12:07.556Z,31.85
2019-04-23T01:14:39.748Z,27.17
2019-04-23T01:17:17.288Z,26.93
2019-04-23T01:21:58.164Z,32.98
2019-04-23T01:24:31.293Z,40.15
2019-04-23T01:30:11.401Z,28.12
2019-04-23T01:32:49.757Z,30.97
2019-04-23T01:40:12.408Z,24.07
2019-04-23T01:42:52.511Z,35.65
2019-04-23T01:45:13.224Z,24.47
2019-04-23T01:47:45.382Z,29.27
2019-04-23T01:50:13.969Z,29.42
2019-04-23T01:52:45.602Z,36.35
2019-04-23T01:55:19.883Z,35.15
2019-04-23T01:57:53.121Z,33.65
2019-04-23T02:00:17.338Z,36.25
2019-04-23T02:02:49.621Z,44.23
2019-04-23T02:05:22.884Z,36.42
2019-04-23T02:07:50.951Z,33.42
2019-04-23T02:10:20.519Z,41.75
2019-04-23T02:15:16.903Z,38.85
2019-04-23T02:17:52.154Z,35.17
2019-04-23T02:20:23.847Z,32.28
2019-04-23T02:25:54.075Z,40.15
2019-04-23T02:43:26.057Z,34.70
2019-04-23T02:48:24.135Z,41.83
2019-04-23T02:53:37.465Z,35.15
2019-04-23T02:58:41.908Z,33.53
2019-04-23T03:01:14.820Z,39.20
2019-04-23T03:03:35.779Z,45.90
2019-04-23T03:08:32.967Z,45.70
2019-04-23T03:11:09.809Z,42.95
2019-04-23T03:13:44.066Z,30.17
2019-04-23T03:16:15.693Z,26.68
2019-04-23T03:18:51.651Z,31.65
2019-04-23T03:21:42.584Z,35.90
2019-04-23T03:26:57.516Z,35.28
2019-04-23T03:39:17.717Z,28.52
2019-04-23T03:41:53.885Z,25.23
2019-04-23T03:44:20.588Z,18.87
2019-04-23T03:49:21.816Z,19.50
2019-04-23T03:54:34.231Z,29.90
2019-04-23T03:57:03.322Z,30.52
2019-04-23T04:02:10.623Z,23.05
2019-04-23T04:07:01.209Z,21.82
2019-04-23T04:12:01.693Z,17.37
2019-04-23T04:14:44.645Z,26.07
2019-04-23T04:16:59.596Z,21.27
2019-04-23T04:24:34.935Z,23.15
2019-04-23T04:27:07.340Z,18.15
2019-04-23T04:29:39.436Z,14.53
2019-04-23T04:32:00.820Z,21.87
2019-04-23T04:39:42.826Z,11.25
2019-04-23T04:44:43.498Z,20.02
2019-04-23T04:47:15.480Z,13.50
2019-04-23T04:52:22.636Z,23.60
2019-04-23T04:54:29.112Z,14.75
2019-04-23T04:59:50.765Z,11.12
2019-04-23T05:04:45.367Z,9.18
2019-04-23T05:07:24.003Z,12.55
2019-04-23T05:12:18.375Z,18.25
2019-04-23T05:14:59.649Z,16.90
2019-04-23T05:17:46.499Z,19.50
2019-04-23T05:20:05.097Z,15.38
2019-04-23T05:22:44.927Z,14.90
2019-04-23T05:24:58.111Z,8.20
2019-04-23T05:27:40.624Z,11.10
2019-04-23T05:30:09.865Z,11.33
2019-04-23T05:32:39.109Z,14.85
2019-04-23T05:35:16.905Z,13.25
2019-04-23T05:37:50.348Z,12.40
2019-04-23T05:40:15.993Z,22.20
2019-04-23T05:42:40.171Z,16.10
2019-04-23T05:45:29.829Z,22.17
2019-04-23T05:47:46.377Z,9.78
2019-04-23T05:50:25.914Z,11.28
2019-04-23T05:52:57.790Z,26.45
2019-04-23T05:55:18.710Z,17.75
2019-04-23T05:57:53.649Z,12.47
2019-04-23T06:00:23.656Z,19.52
2019-04-23T06:03:22.729Z,20.62
2019-04-23T06:05:37.097Z,14.00
2019-04-23T06:08:07.911Z,25.90
2019-04-23T06:10:45.537Z,13.25
2019-04-23T06:13:15.659Z,20.30
2019-04-23T06:15:41.722Z,15.08
2019-04-23T06:18:16.849Z,11.90
2019-04-23T06:20:48.644Z,18.45
2019-04-23T06:23:27.165Z,26.82
2019-04-23T06:28:21.178Z,17.73
2019-04-23T06:30:58.869Z,22.82
2019-04-23T06:33:21.059Z,14.95
2019-04-23T06:35:50.359Z,24.72
2019-04-23T06:40:47.456Z,27.67
2019-04-23T06:43:47.571Z,19.07
2019-04-23T06:46:09.387Z,21.35
2019-04-23T06:48:38.548Z,29.23
2019-04-23T06:51:15.892Z,16.80
2019-04-23T06:53:35.874Z,17.25
2019-04-23T06:56:13.538Z,25.43
2019-04-23T06:58:37.378Z,16.27
2019-04-23T07:01:19.179Z,22.35
2019-04-23T07:03:45.205Z,17.10
2019-04-23T07:09:05.199Z,20.75
2019-04-23T07:11:23.677Z,26.93
2019-04-23T07:13:54.641Z,26.85
2019-04-23T07:16:31.454Z,17.02
2019-04-23T07:21:18.289Z,14.78
2019-04-23T07:23:54.462Z,26.90
2019-04-23T07:28:54.685Z,20.92
2019-04-23T07:31:35.084Z,22.60
2019-04-23T07:41:46.476Z,32.63
2019-04-23T07:44:12.822Z,34.67
2019-04-23T07:47:11.728Z,26.90
2019-04-23T07:49:30.704Z,24.77
2019-04-23T07:52:02.748Z,22.52
2019-04-23T07:54:29.034Z,36.65
2019-04-23T07:57:02.943Z,28.45
2019-04-23T07:59:38.424Z,28.60
2019-04-23T08:02:12.763Z,28.57
2019-04-23T08:04:37.361Z,26.50
2019-04-23T08:07:02.821Z,40.08
2019-04-23T08:09:43.690Z,23.25
2019-04-23T08:12:13.806Z,26.00
2019-04-23T08:14:42.696Z,34.53
2019-04-23T08:17:05.483Z,23.85
2019-04-23T08:19:49.636Z,27.98
2019-04-23T08:22:22.159Z,30.30
2019-04-23T08:24:57.274Z,33.18
2019-04-23T08:27:28.274Z,27.30
2019-04-23T08:30:03.327Z,22.48
2019-04-23T08:32:21.296Z,26.82
2019-04-23T08:35:15.951Z,36.63
2019-04-23T08:37:46.692Z,25.48
2019-04-23T08:40:02.617Z,33.73
2019-04-23T08:50:44.202Z,22.58
2019-04-23T08:53:30.877Z,35.03
2019-04-23T08:56:00.398Z,26.17
2019-04-23T08:58:19.076Z,25.82
2019-04-23T09:00:52.689Z,23.12
2019-04-23T09:05:55.891Z,29.18
2019-04-23T09:10:55.842Z,19.48
2019-04-23T09:13:51.710Z,23.75
2019-04-23T09:20:52.886Z,24.40
2019-04-23T09:23:30.909Z,21.07
2019-04-23T09:25:54.428Z,22.22
2019-04-23T09:28:34.613Z,23.52
2019-04-23T09:31:14.488Z,20.23
2019-04-23T09:34:00.545Z,21.05
2019-04-23T09:36:25.569Z,24.07
2019-04-23T09:38:54.198Z,22.67
2019-04-23T09:41:29.124Z,24.23
2019-04-23T09:44:39.110Z,20.23
2019-04-23T09:46:36.173Z,24.25
2019-04-23T09:54:16.569Z,22.00
2019-04-23T09:56:50.810Z,16.55
2019-04-23T09:59:39.113Z,21.57
2019-04-23T10:01:48.221Z,27.27
2019-04-23T10:04:07.487Z,17.73
2019-04-23T10:06:30.701Z,18.92
2019-04-23T10:09:01.466Z,17.92
2019-04-23T10:11:28.415Z,17.87
2019-04-23T10:13:58.801Z,19.30
2019-04-23T10:16:31.888Z,26.60
2019-04-23T10:18:59.374Z,19.25
2019-04-23T10:21:29.279Z,23.85
2019-04-23T10:23:59.275Z,22.75
2019-04-23T10:26:28.791Z,20.60
2019-04-23T10:29:02.107Z,18.32
2019-04-23T10:31:33.458Z,21.62
2019-04-23T10:34:04.183Z,17.20
2019-04-23T10:36:34.580Z,19.85
2019-04-23T10:39:12.429Z,20.02
2019-04-23T10:41:38.450Z,19.98
2019-04-23T10:44:25.479Z,20.88
2019-04-23T10:47:27.150Z,18.40
2019-04-23T10:52:28.038Z,17.00
2019-04-23T10:57:23.204Z,18.52
2019-04-23T11:00:13.766Z,14.20
2019-04-23T11:05:26.090Z,20.05
2019-04-23T11:07:35.254Z,15.65
2019-04-23T11:10:05.164Z,22.48
2019-04-23T11:12:42.362Z,18.00
2019-04-23T11:17:47.804Z,21.57
2019-04-23T11:20:25.837Z,15.70
2019-04-23T11:27:49.008Z,18.65
2019-04-23T11:38:08.728Z,21.07
2019-04-23T11:40:28.226Z,22.07
2019-04-23T11:42:57.659Z,19.57
2019-04-23T11:45:36.646Z,16.73
2019-04-23T11:48:26.379Z,18.48
2019-04-23T11:50:43.151Z,21.10
2019-04-23T11:52:56.904Z,17.52
2019-04-23T11:55:39.117Z,23.25
2019-04-23T11:58:08.412Z,21.45
2019-04-23T12:00:38.626Z,22.07
2019-04-23T12:03:02.605Z,25.77
2019-04-23T12:06:07.513Z,23.10
2019-04-23T12:09:31.426Z,32.17
2019-04-23T12:11:35.858Z,23.87
2019-04-23T12:13:45.560Z,25.35
2019-04-23T12:16:12.525Z,26.82
2019-04-23T12:18:51.431Z,24.70
2019-04-23T12:21:25.438Z,26.87
2019-04-23T12:26:34.218Z,24.92
2019-04-23T12:28:53.098Z,21.25
2019-04-23T12:31:25.438Z,22.73
2019-04-23T12:33:57.512Z,27.02
2019-04-23T12:39:11.325Z,20.05
2019-04-23T12:41:45.437Z,27.07
2019-04-23T12:44:33.294Z,24.52
2019-04-23T12:46:46.190Z,23.15
2019-04-23T12:49:34.069Z,26.30
2019-04-23T12:51:46.898Z,21.17
2019-04-23T12:54:21.345Z,25.68
2019-04-23T12:56:57.377Z,24.60
2019-04-23T12:59:17.200Z,23.60
2019-04-23T13:01:48.912Z,21.37
2019-04-23T13:04:21.870Z,26.57
2019-04-23T13:06:45.585Z,25.35
2019-04-23T13:09:38.972Z,24.82
2019-04-23T13:11:53.006Z,22.55
2019-04-23T13:14:29.621Z,23.65
2019-04-23T13:19:33.326Z,29.80
2019-04-23T13:22:00.226Z,26.10
2019-04-23T13:24:46.234Z,33.33
2019-04-23T13:27:12.033Z,25.27
2019-04-23T13:29:46.085Z,23.35
2019-04-23T13:32:11.059Z,21.68
2019-04-23T13:34:48.432Z,32.80
2019-04-23T13:37:26.292Z,20.23
2019-04-23T13:39:43.843Z,24.45
2019-04-23T13:42:24.319Z,24.32
2019-04-23T13:44:46.643Z,26.02
2019-04-23T13:47:36.233Z,27.98
2019-04-23T13:49:55.141Z,31.57
2019-04-23T13:52:43.291Z,35.43
2019-04-23T13:57:50.896Z,26.40
2019-04-23T14:05:00.394Z,25.77
2019-04-23T14:07:44.588Z,30.57
2019-04-23T14:10:13.570Z,26.82
2019-04-23T14:12:41.605Z,28.67
2019-04-23T14:20:07.160Z,33.02
2019-04-23T14:25:05.762Z,33.05
2019-04-23T14:27:51.987Z,33.60
2019-04-23T14:30:13.164Z,28.77
2019-04-23T14:32:41.552Z,34.63
2019-04-23T14:35:21.302Z,36.17
2019-04-23T14:37:59.794Z,35.78
2019-04-23T14:40:19.608Z,36.88
2019-04-23T14:42:56.190Z,29.98
2019-04-23T14:48:00.938Z,36.75
2019-04-23T14:50:34.841Z,37.28
2019-04-23T14:53:06.947Z,33.40
2019-04-23T15:00:33.250Z,32.85
2019-04-23T15:03:08.356Z,27.80
2019-04-23T15:05:38.385Z,30.70
2019-04-23T15:07:58.176Z,36.73
2019-04-23T15:10:36.041Z,32.55
2019-04-23T15:13:03.333Z,38.25
2019-04-23T15:15:40.521Z,33.18
2019-04-23T15:18:07.453Z,31.85
2019-04-23T15:20:41.456Z,35.98
2019-04-23T15:23:25.609Z,38.02
2019-04-23T15:26:15.241Z,25.82
2019-04-23T15:28:06.765Z,37.40
2019-04-23T15:30:51.438Z,34.75
2019-04-23T15:33:25.931Z,37.17
2019-04-23T15:36:21.863Z,32.88
2019-04-23T15:38:37.770Z,35.83
2019-04-23T15:40:53.975Z,32.63
2019-04-23T15:43:14.462Z,36.48
2019-04-23T15:45:52.355Z,36.50
2019-04-23T15:48:22.440Z,32.20
2019-04-23T15:50:51.691Z,39.73
2019-04-23T15:53:11.444Z,32.42
2019-04-23T15:55:49.180Z,31.73
2019-04-23T15:58:26.554Z,31.48
2019-04-23T16:01:18.148Z,34.53
2019-04-23T16:03:15.584Z,34.63
2019-04-23T16:05:46.379Z,35.43
2019-04-23T16:08:56.919Z,39.00
2019-04-23T16:11:26.491Z,37.65
2019-04-23T16:14:08.001Z,37.08
2019-04-23T16:16:26.151Z,44.63
2019-04-23T16:19:05.921Z,45.43
2019-04-23T16:21:41.144Z,41.45
2019-04-23T16:24:01.190Z,38.88
2019-04-23T16:26:32.474Z,39.03
2019-04-23T16:31:35.987Z,34.40
2019-04-23T16:34:17.795Z,46.05
2019-04-23T16:36:32.921Z,39.05
2019-04-23T16:39:07.550Z,36.15
2019-04-23T16:41:43.742Z,40.35
2019-04-23T16:44:14.238Z,35.78
2019-04-23T16:46:44.276Z,46.10
2019-04-23T16:49:15.328Z,42.33
2019-04-23T16:51:32.444Z,40.78
2019-04-23T16:54:15.279Z,40.23
2019-04-23T16:56:55.979Z,43.48
2019-04-23T16:59:15.311Z,38.17
2019-04-23T17:01:46.550Z,37.53
2019-04-23T17:04:19.594Z,36.98
2019-04-23T17:06:44.200Z,38.63
2019-04-23T17:09:36.781Z,39.83
2019-04-23T17:11:44.802Z,38.75
2019-04-23T17:14:21.567Z,42.88
2019-04-23T17:27:08.252Z,37.73
2019-04-23T17:29:26.805Z,37.93
2019-04-23T17:31:45.225Z,44.23
2019-04-23T17:34:30.216Z,52.30
2019-04-23T17:39:45.376Z,42.25
2019-04-23T17:42:22.592Z,41.95
2019-04-23T17:45:07.870Z,39.38
2019-04-23T17:47:30.088Z,47.85
2019-04-23T17:52:26.626Z,38.63
2019-04-23T17:55:04.666Z,46.02
2019-04-23T18:00:17.952Z,37.55
2019-04-23T18:10:24.782Z,45.52
2019-04-23T18:12:43.866Z,39.78
2019-04-23T18:15:14.824Z,39.23
2019-04-23T18:17:41.325Z,46.65
2019-04-23T18:20:19.296Z,50.63
2019-04-23T18:22:56.842Z,45.85
2019-04-23T18:27:56.705Z,48.85
2019-04-23T18:30:52.704Z,42.40
2019-04-23T18:34:05.314Z,48.87
2019-04-23T18:36:02.475Z,43.10
2019-04-23T18:38:41.254Z,58.70
2019-04-23T18:43:38.930Z,43.10
2019-04-23T18:46:16.660Z,53.10
2019-04-23T18:51:10.427Z,42.67
2019-04-23T18:53:48.187Z,41.50
2019-04-23T19:06:30.421Z,46.58
2019-04-23T19:11:37.059Z,41.73
2019-04-23T19:13:59.518Z,39.03
2019-04-23T19:16:35.729Z,50.03
2019-04-23T19:19:05.193Z,42.67
2019-04-23T19:22:01.199Z,49.40
2019-04-23T19:23:54.776Z,49.77
2019-04-23T19:26:55.214Z,52.83
2019-04-23T19:29:00.432Z,43.52
2019-04-23T19:31:44.782Z,44.20
2019-04-23T19:39:17.793Z,51.42
2019-04-23T19:46:54.860Z,52.95
2019-04-23T19:49:25.072Z,42.10
2019-04-23T19:54:25.183Z,44.63
2019-04-23T19:56:59.922Z,34.80
2019-04-23T19:59:23.327Z,40.75
2019-04-23T20:01:58.900Z,51.70
2019-04-23T20:04:26.279Z,45.50
2019-04-23T20:09:38.358Z,46.85
2019-04-23T20:11:54.685Z,48.05
2019-04-23T20:14:27.643Z,36.75
2019-04-23T20:17:21.489Z,41.37
2019-04-23T20:19:30.037Z,44.90
2019-04-23T20:21:59.224Z,54.05
2019-04-23T20:27:09.276Z,43.63
2019-04-23T20:34:53.209Z,49.60
2019-04-23T20:37:12.575Z,37.78
2019-04-23T20:39:56.676Z,46.73
2019-04-23T20:42:18.208Z,36.63
2019-04-23T20:44:57.048Z,47.33
2019-04-23T20:47:30.386Z,39.25
2019-04-23T20:49:47.995Z,35.75
2019-04-23T20:52:30.160Z,44.05
2019-04-23T20:57:39.135Z,47.85
2019-04-23T21:03:10.456Z,40.40
2019-04-23T21:07:57.697Z,34.27
2019-04-23T21:12:58.160Z,41.53
2019-04-23T21:17:56.181Z,42.67
2019-04-23T21:22:58.408Z,29.85
2019-04-23T21:25:14.566Z,33.42
2019-04-23T21:27:57.225Z,31.33
2019-04-23T21:30:49.016Z,27.48
2019-04-23T21:33:11.610Z,26.10
2019-04-23T21:36:10.755Z,28.62
2019-04-23T21:38:46.404Z,31.73
2019-04-23T21:46:24.195Z,34.53
2019-04-23T21:49:08.685Z,28.47
2019-04-23T21:51:39.610Z,27.98
2019-04-23T21:53:53.183Z,33.42
2019-04-23T21:56:27.561Z,24.18
2019-04-23T21:58:57.618Z,46.80
2019-04-23T22:04:39.968Z,20.82
2019-04-23T22:09:04.315Z,21.97
2019-04-23T22:11:48.237Z,21.95
2019-04-23T22:14:05.969Z,22.85
2019-04-23T22:16:37.077Z,19.42
2019-04-23T22:19:10.644Z,33.05
2019-04-23T22:21:42.999Z,30.52
2019-04-23T22:29:19.159Z,32.88
2019-04-23T22:31:37.803Z,37.05
2019-04-23T22:36:39.463Z,26.35
2019-04-23T22:41:46.991Z,37.60
2019-04-23T22:49:29.173Z,33.88
2019-04-23T22:51:55.097Z,33.90
2019-04-23T22:54:14.972Z,39.15
2019-04-23T22:56:56.576Z,27.35
2019-04-23T23:02:00.369Z,37.93
2019-04-23T23:04:29.000Z,29.25
2019-04-23T23:07:03.265Z,40.00
2019-04-23T23:12:10.932Z,48.63
2019-04-23T23:14:45.916Z,42.30
2019-04-23T23:16:59.792Z,43.83
2019-04-23T23:19:39.864Z,43.30
2019-04-23T23:27:40.347Z,23.85
2019-04-23T23:32:43.163Z,29.98
2019-04-23T23:35:14.587Z,29.18
2019-04-23T23:37:37.220Z,21.17
2019-04-23T23:40:14.709Z,33.83
2019-04-23T23:42:50.198Z,23.38
2019-04-23T23:47:37.918Z,21.30
2019-04-23T23:50:26.522Z,24.60
2019-04-23T23:52:51.667Z,26.85
2019-04-23T23:55:16.060Z,25.75
2019-04-23T23:57:44.419Z,20.02
